Time;durP1;ratioP1;P1;durP2;ratioP2;P2;SDS_P1;SDS_P2;PMS_P1;PMS_P2;Temp;Humidity;BMP_temperature;BMP_pressure;BME280_temperature;BME280_humidity;BME280_pressure;Samples;Min_cycle;Max_cycle;Signal;HPM_P1;HPM_P2
2023/09/01 00:00:15;;;;;;;14.60;11.33;;;11.20;99.90;;;;;;5100863;28;20474;-61
2023/09/01 00:02:42;;;;;;;15.73;12.00;;;11.30;99.90;;;;;;5100804;28;20767;-61
2023/09/01 00:05:12;;;;;;;20.07;11.53;;;11.30;99.90;;;;;;5101037;28;20565;-61
2023/09/01 00:07:39;;;;;;;13.30;11.20;;;11.20;99.90;;;;;;5100494;28;20452;-61
2023/09/01 00:10:07;;;;;;;13.67;10.87;;;11.20;99.90;;;;;;5100343;28;20559;-61
2023/09/01 00:12:34;;;;;;;16.30;11.77;;;11.30;99.90;;;;;;5100664;28;20513;-61
2023/09/01 00:15:03;;;;;;;13.20;10.70;;;11.30;99.90;;;;;;5100632;28;20593;-61
2023/09/01 00:17:30;;;;;;;13.40;10.67;;;11.20;99.90;;;;;;5099914;28;20474;-61
2023/09/01 00:19:57;;;;;;;15.63;11.10;;;11.20;99.90;;;;;;5099849;28;20434;-62
2023/09/01 00:22:26;;;;;;;16.17;12.00;;;11.20;99.90;;;;;;5100201;28;20550;-61
2023/09/01 00:24:53;;;;;;;15.53;11.23;;;11.20;99.90;;;;;;5099900;28;20492;-61
2023/09/01 00:27:20;;;;;;;15.37;10.37;;;11.30;99.90;;;;;;5100392;28;20456;-61
2023/09/01 00:29:47;;;;;;;15.77;11.40;;;11.30;99.90;;;;;;5100115;28;20525;-61
2023/09/01 00:32:14;;;;;;;13.20;10.53;;;11.30;99.90;;;;;;5100015;28;20456;-61
2023/09/01 00:34:41;;;;;;;15.73;10.83;;;11.20;99.90;;;;;;5100136;28;20460;-61
2023/09/01 00:37:09;;;;;;;13.17;10.07;;;11.10;99.90;;;;;;5099317;28;20591;-61
2023/09/01 00:39:37;;;;;;;10.67;8.53;;;11.10;99.90;;;;;;5100026;28;20485;-61
2023/09/01 00:42:04;;;;;;;10.63;9.07;;;11.10;99.90;;;;;;5100013;28;20502;-61
2023/09/01 00:44:32;;;;;;;12.80;9.77;;;11.10;99.90;;;;;;5099989;28;20964;-61
2023/09/01 00:46:59;;;;;;;11.63;10.00;;;11.10;99.90;;;;;;5100394;28;20456;-61
2023/09/01 00:49:26;;;;;;;12.80;9.00;;;11.10;99.90;;;;;;5099092;28;20456;-61
2023/09/01 00:51:53;;;;;;;13.80;10.23;;;11.20;99.90;;;;;;5099696;28;20953;-61
2023/09/01 00:54:21;;;;;;;10.80;9.43;;;11.20;99.90;;;;;;5099850;28;20456;-61
2023/09/01 00:56:51;;;;;;;11.93;8.97;;;11.20;99.90;;;;;;5099769;28;20728;-61
2023/09/01 00:59:18;;;;;;;11.77;9.53;;;11.10;99.90;;;;;;5100076;28;20463;-61
2023/09/01 01:01:46;;;;;;;13.70;10.60;;;11.10;99.90;;;;;;5098913;28;20462;-61
2023/09/01 01:04:14;;;;;;;12.33;9.20;;;11.10;99.90;;;;;;5099490;28;20735;-61
2023/09/01 01:07:08;;;;;;;12.97;9.50;;;11.10;99.90;;;;;;5098565;28;20459;-62
2023/09/01 01:09:45;;;;;;;10.93;9.67;;;11.10;99.90;;;;;;5099161;28;20819;-61
2023/09/01 01:12:25;;;;;;;11.03;8.67;;;11.20;99.90;;;;;;5099699;28;20865;-61
2023/09/01 01:14:54;;;;;;;13.17;9.90;;;11.20;99.90;;;;;;5099629;28;20529;-61
2023/09/01 01:17:22;;;;;;;11.40;8.90;;;11.20;99.90;;;;;;5099591;28;20495;-61
2023/09/01 01:19:53;;;;;;;12.60;9.73;;;11.20;99.90;;;;;;5099395;28;20874;-60
2023/09/01 01:22:33;;;;;;;9.27;8.17;;;11.20;99.90;;;;;;5099239;28;20885;-60
2023/09/01 01:25:05;;;;;;;12.10;8.03;;;11.20;99.90;;;;;;5099620;28;20464;-60
2023/09/01 01:27:32;;;;;;;9.90;8.70;;;11.20;99.90;;;;;;5098940;28;20452;-60
2023/09/01 01:30:00;;;;;;;11.60;8.70;;;11.20;99.90;;;;;;5098795;28;20460;-60
2023/09/01 01:32:28;;;;;;;11.63;9.67;;;11.20;99.90;;;;;;5099310;28;20772;-60
2023/09/01 01:35:06;;;;;;;18.80;9.33;;;11.20;99.90;;;;;;5098957;28;20435;-61
2023/09/01 01:37:42;;;;;;;10.17;8.90;;;11.10;99.90;;;;;;5099179;28;20492;-60
2023/09/01 01:40:11;;;;;;;10.57;8.23;;;11.10;99.90;;;;;;5098866;28;20550;-60
2023/09/01 01:42:39;;;;;;;13.43;9.13;;;11.10;99.90;;;;;;5098836;28;20539;-61
2023/09/01 01:45:09;;;;;;;12.43;9.17;;;11.10;99.90;;;;;;5098862;28;20460;-61
2023/09/01 01:47:36;;;;;;;11.10;8.90;;;11.10;99.90;;;;;;5098570;28;20460;-60
2023/09/01 01:50:05;;;;;;;15.30;10.20;;;11.00;99.90;;;;;;5098392;28;20462;-60
2023/09/01 01:52:33;;;;;;;11.10;8.27;;;11.10;99.90;;;;;;5098372;28;20460;-60
2023/09/01 01:55:00;;;;;;;9.73;8.73;;;11.10;99.90;;;;;;5098599;28;20432;-61
2023/09/01 01:57:29;;;;;;;11.37;8.93;;;11.10;99.90;;;;;;5097923;28;20528;-61
2023/09/01 01:59:56;;;;;;;16.40;8.90;;;11.10;99.90;;;;;;5098565;28;20461;-60
2023/09/01 02:02:23;;;;;;;16.43;8.70;;;11.10;99.90;;;;;;5098578;28;20460;-61
2023/09/01 02:04:51;;;;;;;12.30;9.07;;;11.20;99.90;;;;;;5098113;28;20456;-61
2023/09/01 02:07:18;;;;;;;11.53;8.47;;;11.20;99.90;;;;;;5097787;28;20463;-61
2023/09/01 02:09:45;;;;;;;14.37;9.13;;;11.20;99.90;;;;;;5097948;28;20456;-60
2023/09/01 02:12:12;;;;;;;12.67;9.33;;;11.30;99.90;;;;;;5097482;28;20462;-60
2023/09/01 02:14:41;;;;;;;11.37;9.37;;;11.30;99.90;;;;;;5098259;28;20534;-59
2023/09/01 02:17:08;;;;;;;10.87;8.13;;;11.40;99.90;;;;;;5098080;28;20491;-59
2023/09/01 02:19:35;;;;;;;9.23;8.27;;;11.40;99.90;;;;;;5097709;28;20550;-59
2023/09/01 02:22:05;;;;;;;10.60;8.50;;;11.40;99.90;;;;;;5098010;28;20763;-59
2023/09/01 02:24:33;;;;;;;11.17;8.40;;;11.40;99.90;;;;;;5098345;28;20472;-59
2023/09/01 02:27:00;;;;;;;11.20;6.97;;;11.40;99.90;;;;;;5098081;28;20456;-59
2023/09/01 02:29:27;;;;;;;9.90;7.27;;;11.40;99.90;;;;;;5097681;28;20831;-59
2023/09/01 02:31:56;;;;;;;9.07;7.70;;;11.50;99.90;;;;;;5097884;28;20456;-59
2023/09/01 02:34:23;;;;;;;8.30;6.93;;;11.50;99.90;;;;;;5097832;28;20719;-59
2023/09/01 02:36:50;;;;;;;10.47;8.50;;;11.60;99.90;;;;;;5097380;28;20488;-59
2023/09/01 02:39:18;;;;;;;8.50;7.70;;;11.60;99.90;;;;;;5097893;28;20540;-59
2023/09/01 02:41:45;;;;;;;8.97;7.13;;;11.60;99.90;;;;;;5097564;28;20902;-59
2023/09/01 02:44:12;;;;;;;9.97;7.50;;;11.60;99.90;;;;;;5097471;28;20509;-59
2023/09/01 02:46:39;;;;;;;11.63;7.87;;;11.70;99.90;;;;;;5097622;28;20453;-60
2023/09/01 02:49:08;;;;;;;10.83;8.10;;;11.70;99.90;;;;;;5097075;28;20517;-59
2023/09/01 02:51:35;;;;;;;12.27;7.70;;;11.80;99.90;;;;;;5096317;28;20437;-59
2023/09/01 02:54:04;;;;;;;8.83;7.33;;;11.80;99.90;;;;;;5097279;28;20460;-59
2023/09/01 02:56:31;;;;;;;9.10;7.83;;;11.90;99.90;;;;;;5097605;28;20480;-59
2023/09/01 02:58:59;;;;;;;8.60;6.90;;;12.00;99.90;;;;;;5097514;28;20578;-59
2023/09/01 03:01:26;;;;;;;9.00;7.77;;;12.00;99.90;;;;;;5097712;28;20551;-59
2023/09/01 03:03:53;;;;;;;10.07;7.20;;;12.00;99.90;;;;;;5097062;28;20463;-59
2023/09/01 03:06:21;;;;;;;9.73;6.77;;;12.00;99.90;;;;;;5097356;28;20830;-59
2023/09/01 03:08:49;;;;;;;13.57;7.60;;;12.00;99.90;;;;;;5097156;28;20456;-59
2023/09/01 03:11:16;;;;;;;11.13;7.80;;;12.00;99.90;;;;;;5096832;28;20551;-59
2023/09/01 03:13:43;;;;;;;8.60;7.43;;;12.00;99.90;;;;;;5097140;28;20888;-59
2023/09/01 03:16:10;;;;;;;10.43;7.30;;;12.00;99.90;;;;;;5097295;28;20464;-59
2023/09/01 03:18:37;;;;;;;8.20;7.20;;;11.90;99.90;;;;;;5096518;28;20502;-59
2023/09/01 03:21:11;;;;;;;10.93;6.87;;;12.00;99.90;;;;;;5097336;28;20482;-59
2023/09/01 03:23:41;;;;;;;7.30;6.63;;;12.00;99.90;;;;;;5096770;28;20466;-58
2023/09/01 03:26:08;;;;;;;8.20;6.37;;;12.10;99.90;;;;;;5096489;28;20488;-59
2023/09/01 03:28:36;;;;;;;8.00;6.43;;;12.10;99.90;;;;;;5096176;28;20456;-59
2023/09/01 03:31:08;;;;;;;12.27;6.97;;;12.20;99.90;;;;;;5097050;28;20545;-60
2023/09/01 03:33:35;;;;;;;12.00;7.53;;;12.30;99.90;;;;;;5096275;28;20456;-60
2023/09/01 03:36:03;;;;;;;11.53;7.57;;;12.20;99.90;;;;;;5095102;28;20795;-60
2023/09/01 03:38:30;;;;;;;7.57;6.80;;;12.30;99.90;;;;;;5095299;28;20549;-59
2023/09/01 03:41:01;;;;;;;9.50;7.17;;;12.40;99.90;;;;;;5095407;28;20463;-60
2023/09/01 03:43:28;;;;;;;7.30;6.60;;;12.40;99.90;;;;;;5095091;28;20796;-60
2023/09/01 03:45:57;;;;;;;10.40;7.20;;;12.40;99.90;;;;;;5095345;28;20514;-60
2023/09/01 03:48:24;;;;;;;8.73;7.00;;;12.40;99.90;;;;;;5095705;28;20456;-59
2023/09/01 03:51:06;;;;;;;7.17;6.37;;;12.50;99.90;;;;;;5097254;28;20462;-59
2023/09/01 03:53:34;;;;;;;10.77;6.70;;;12.50;99.90;;;;;;5096738;28;20467;-59
2023/09/01 03:56:09;;;;;;;9.77;6.30;;;12.50;99.90;;;;;;5096653;28;20460;-60
2023/09/01 03:58:36;;;;;;;9.37;6.50;;;12.50;99.90;;;;;;5097187;28;20769;-59
2023/09/01 04:01:08;;;;;;;9.17;6.80;;;12.60;99.90;;;;;;5097217;28;20555;-59
2023/09/01 04:03:35;;;;;;;7.20;6.43;;;12.60;99.90;;;;;;5096818;28;20877;-59
2023/09/01 04:06:03;;;;;;;11.40;8.13;;;12.60;99.90;;;;;;5095674;28;20432;-60
2023/09/01 04:08:30;;;;;;;11.83;7.80;;;12.60;99.90;;;;;;5096738;28;20471;-59
2023/09/01 04:10:57;;;;;;;9.63;7.17;;;12.60;99.90;;;;;;5096910;28;20463;-59
2023/09/01 04:13:26;;;;;;;14.30;7.30;;;12.70;99.90;;;;;;5096972;28;20453;-59
2023/09/01 04:15:55;;;;;;;8.33;6.33;;;12.70;99.90;;;;;;5096709;28;20464;-60
2023/09/01 04:18:23;;;;;;;6.93;6.23;;;12.70;99.90;;;;;;5096481;28;20484;-59
2023/09/01 04:20:51;;;;;;;8.03;6.13;;;12.70;99.90;;;;;;5096996;28;20456;-59
2023/09/01 04:23:18;;;;;;;7.80;6.97;;;12.80;99.90;;;;;;5097514;28;20472;-60
2023/09/01 04:25:46;;;;;;;8.27;6.47;;;12.70;99.90;;;;;;5100188;28;20456;-59
2023/09/01 04:28:14;;;;;;;13.70;7.20;;;12.70;99.90;;;;;;5100027;28;20476;-59
2023/09/01 04:30:43;;;;;;;11.30;8.27;;;12.80;99.90;;;;;;5100504;28;20456;-59
2023/09/01 04:33:11;;;;;;;9.50;6.73;;;12.80;99.90;;;;;;5100241;28;20901;-59
2023/09/01 04:35:38;;;;;;;9.67;7.40;;;12.80;99.90;;;;;;5099299;28;20487;-59
2023/09/01 04:38:06;;;;;;;8.93;6.83;;;12.80;99.90;;;;;;5100238;28;20531;-59
2023/09/01 04:40:33;;;;;;;10.43;6.77;;;12.80;99.90;;;;;;5099820;28;20456;-59
2023/09/01 04:43:00;;;;;;;10.33;7.30;;;12.80;99.90;;;;;;5099890;28;20547;-59
2023/09/01 04:45:27;;;;;;;11.50;8.30;;;12.90;99.90;;;;;;5099316;28;20463;-59
2023/09/01 04:47:56;;;;;;;10.20;7.70;;;12.90;99.90;;;;;;5097341;28;20474;-61
2023/09/01 04:50:23;;;;;;;12.63;7.80;;;12.90;99.90;;;;;;5092751;28;20947;-59
2023/09/01 04:52:50;;;;;;;7.70;6.90;;;13.00;99.90;;;;;;5079610;28;20453;-59
2023/09/01 04:55:18;;;;;;;8.10;6.90;;;13.00;99.90;;;;;;5079501;28;20746;-59
2023/09/01 04:57:45;;;;;;;8.97;7.87;;;13.20;99.90;;;;;;5078949;28;20487;-59
2023/09/01 05:00:19;;;;;;;8.10;7.17;;;13.20;99.90;;;;;;5079137;28;20548;-59
2023/09/01 05:02:46;;;;;;;9.13;7.53;;;13.20;99.90;;;;;;5079700;28;20551;-59
2023/09/01 05:05:15;;;;;;;10.70;7.87;;;13.20;99.90;;;;;;5090265;28;20749;-60
2023/09/01 05:07:43;;;;;;;8.10;7.03;;;13.30;99.90;;;;;;5080028;28;20507;-59
2023/09/01 05:10:11;;;;;;;8.33;7.50;;;13.40;99.90;;;;;;5078601;28;20625;-59
2023/09/01 05:12:38;;;;;;;7.87;6.97;;;13.40;99.90;;;;;;5079435;28;20481;-59
2023/09/01 05:15:07;;;;;;;10.20;7.87;;;13.40;99.90;;;;;;5078805;28;20555;-59
2023/09/01 05:17:34;;;;;;;10.90;7.17;;;13.50;99.90;;;;;;5078781;28;20886;-59
2023/09/01 05:20:03;;;;;;;9.10;6.30;;;13.60;99.90;;;;;;5079410;28;20464;-59
2023/09/01 05:22:32;;;;;;;9.37;6.93;;;13.70;99.90;;;;;;5079313;28;20466;-59
2023/09/01 05:25:00;;;;;;;8.93;6.30;;;13.70;99.90;;;;;;5079325;28;20560;-59
2023/09/01 05:27:27;;;;;;;14.90;8.03;;;13.80;99.90;;;;;;5078629;28;20497;-60
2023/09/01 05:29:54;;;;;;;10.63;7.10;;;13.90;99.90;;;;;;5078782;28;20560;-59
2023/09/01 05:32:22;;;;;;;12.43;7.83;;;14.00;99.90;;;;;;5078325;28;20465;-59
2023/09/01 05:34:50;;;;;;;7.80;7.00;;;14.00;99.90;;;;;;5078009;28;20461;-60
2023/09/01 05:37:17;;;;;;;10.63;8.07;;;14.10;99.90;;;;;;5096571;28;20534;-60
2023/09/01 05:39:46;;;;;;;8.50;6.80;;;14.10;99.90;;;;;;5097029;28;21037;-59
2023/09/01 05:42:14;;;;;;;8.80;6.90;;;14.10;99.90;;;;;;5097415;28;20753;-60
2023/09/01 05:44:42;;;;;;;11.93;7.00;;;14.20;99.90;;;;;;5096942;28;20908;-60
2023/09/01 05:47:09;;;;;;;10.50;6.67;;;14.20;99.90;;;;;;5098084;28;20915;-61
2023/09/01 05:49:37;;;;;;;7.50;6.13;;;14.30;99.90;;;;;;5117042;28;20826;-60
2023/09/01 05:52:05;;;;;;;11.50;7.10;;;14.30;99.90;;;;;;5117141;28;20809;-60
2023/09/01 05:54:32;;;;;;;12.73;6.70;;;14.40;99.90;;;;;;5117307;28;20490;-60
2023/09/01 05:57:01;;;;;;;8.90;6.30;;;14.30;99.90;;;;;;5117102;28;20741;-60
2023/09/01 05:59:28;;;;;;;8.27;6.27;;;14.30;99.90;;;;;;5117216;28;20487;-60
2023/09/01 06:01:56;;;;;;;7.00;6.30;;;14.40;99.90;;;;;;5118101;28;20913;-60
2023/09/01 06:04:23;;;;;;;7.73;6.23;;;14.40;99.90;;;;;;5118544;28;20462;-60
2023/09/01 06:06:50;;;;;;;7.20;5.90;;;14.50;99.90;;;;;;5118831;28;20971;-60
2023/09/01 06:09:17;;;;;;;6.20;5.60;;;14.50;99.90;;;;;;5118806;28;20451;-60
2023/09/01 06:11:45;;;;;;;7.63;5.47;;;14.50;99.90;;;;;;5118321;28;20460;-60
2023/09/01 06:14:14;;;;;;;7.50;5.77;;;14.60;99.90;;;;;;5119009;28;20517;-60
2023/09/01 06:16:41;;;;;;;6.80;5.93;;;14.70;99.90;;;;;;5118643;28;20826;-60
2023/09/01 06:19:09;;;;;;;9.97;6.20;;;15.00;99.90;;;;;;5118543;28;20996;-60
2023/09/01 06:21:36;;;;;;;7.43;5.07;;;15.00;99.90;;;;;;5118521;28;20712;-61
2023/09/01 06:24:04;;;;;;;7.30;5.30;;;15.20;99.90;;;;;;5118609;28;20745;-61
2023/09/01 06:26:32;;;;;;;6.70;5.00;;;15.30;99.90;;;;;;5118516;28;20951;-61
2023/09/01 06:28:59;;;;;;;6.60;5.70;;;15.40;99.90;;;;;;5116889;28;20444;-61
2023/09/01 06:31:28;;;;;;;6.30;5.33;;;15.50;99.90;;;;;;5118091;28;20546;-61
2023/09/01 06:33:55;;;;;;;6.00;4.60;;;15.50;99.90;;;;;;5116520;28;20466;-60
2023/09/01 06:36:23;;;;;;;7.00;4.90;;;15.50;99.90;;;;;;5106523;28;20490;-62
2023/09/01 06:38:50;;;;;;;9.20;4.90;;;15.50;99.90;;;;;;5097987;28;20511;-61
2023/09/01 06:41:17;;;;;;;6.07;4.90;;;15.50;99.90;;;;;;5097157;28;20469;-61
2023/09/01 06:43:44;;;;;;;7.87;5.27;;;15.50;99.90;;;;;;5097847;28;20480;-61
2023/09/01 06:46:12;;;;;;;4.73;4.33;;;15.60;99.90;;;;;;5096732;28;20555;-61
2023/09/01 06:48:40;;;;;;;5.60;4.50;;;15.60;99.90;;;;;;5096095;28;20452;-62
2023/09/01 06:51:08;;;;;;;4.83;4.30;;;15.70;99.90;;;;;;5096329;28;20889;-62
2023/09/01 06:53:35;;;;;;;7.57;4.80;;;15.70;99.90;;;;;;5095766;28;20733;-63
2023/09/01 06:56:02;;;;;;;5.10;4.60;;;15.80;99.90;;;;;;5095823;28;20790;-62
2023/09/01 06:58:30;;;;;;;5.80;4.37;;;15.80;99.90;;;;;;5095643;28;20488;-62
2023/09/01 07:00:58;;;;;;;6.07;4.90;;;15.80;99.90;;;;;;5080612;28;20568;-62
2023/09/01 07:03:26;;;;;;;6.67;4.40;;;15.80;99.90;;;;;;5075945;28;20453;-62
2023/09/01 07:05:58;;;;;;;6.97;4.33;;;15.90;99.90;;;;;;5076510;28;20461;-62
2023/09/01 07:08:26;;;;;;;5.73;3.70;;;16.00;99.90;;;;;;5076870;28;20472;-62
2023/09/01 07:10:53;;;;;;;5.93;4.10;;;16.10;99.90;;;;;;5080741;28;20456;-62
2023/09/01 07:13:20;;;;;;;5.80;4.23;;;16.10;99.90;;;;;;5096524;28;20460;-62
2023/09/01 07:15:51;;;;;;;4.30;3.90;;;16.10;99.90;;;;;;5097172;28;20684;-62
2023/09/01 07:18:18;;;;;;;5.87;3.93;;;16.20;97.60;;;;;;5097318;28;20562;-61
2023/09/01 07:20:47;;;;;;;4.77;4.20;;;16.20;97.50;;;;;;5097352;28;20456;-62
2023/09/01 07:23:16;;;;;;;4.60;3.80;;;16.30;60.20;;;;;;5097298;28;20456;-62
2023/09/01 07:25:44;;;;;;;4.83;4.00;;;16.30;5.10;;;;;;5096607;28;20913;-62
2023/09/01 07:28:12;;;;;;;5.00;4.50;;;16.40;1.00;;;;;;5095223;28;20464;-62
2023/09/01 07:30:40;;;;;;;3.43;3.03;;;16.40;1.00;;;;;;5097375;28;20460;-62
2023/09/01 07:33:07;;;;;;;5.60;4.17;;;16.40;1.00;;;;;;5095175;28;20944;-62
2023/09/01 07:35:35;;;;;;;5.90;3.70;;;16.50;1.00;;;;;;5095162;28;20485;-62
2023/09/01 07:38:03;;;;;;;4.87;3.73;;;16.60;1.00;;;;;;5095604;28;20491;-61
2023/09/01 07:40:33;;;;;;;6.50;4.20;;;16.70;1.00;;;;;;5095449;28;21090;-62
2023/09/01 07:43:01;;;;;;;6.10;3.70;;;16.90;1.00;;;;;;5095659;28;20456;-62
2023/09/01 07:45:28;;;;;;;8.70;3.40;;;17.10;99.90;;;;;;5094883;28;20902;-61
2023/09/01 07:47:56;;;;;;;4.13;3.73;;;17.30;78.60;;;;;;5094625;28;20460;-62
2023/09/01 07:50:23;;;;;;;3.93;3.33;;;17.30;1.00;;;;;;5096580;28;20877;-61
2023/09/01 07:52:51;;;;;;;3.87;2.80;;;17.30;1.00;;;;;;5096546;28;20467;-61
2023/09/01 07:55:19;;;;;;;4.10;3.23;;;17.30;1.00;;;;;;5094959;28;20460;-61
2023/09/01 07:57:48;;;;;;;4.70;3.10;;;17.20;1.00;;;;;;5096357;28;20484;-62
2023/09/01 08:00:17;;;;;;;4.23;3.43;;;17.30;1.00;;;;;;5099682;28;20583;-61
2023/09/01 08:02:44;;;;;;;6.47;3.43;;;17.30;1.00;;;;;;5100411;28;20468;-61
2023/09/01 08:05:12;;;;;;;3.17;2.87;;;17.30;1.00;;;;;;5100369;28;20483;-61
2023/09/01 08:07:40;;;;;;;4.20;3.30;;;17.30;1.00;;;;;;5100255;28;20525;-61
2023/09/01 08:10:09;;;;;;;4.07;3.50;;;17.30;1.00;;;;;;5100722;28;20510;-60
2023/09/01 08:12:36;;;;;;;8.33;3.20;;;17.30;1.00;;;;;;5100436;28;20529;-60
2023/09/01 08:15:06;;;;;;;3.93;3.40;;;17.30;1.00;;;;;;5100420;28;20499;-62
2023/09/01 08:17:35;;;;;;;4.50;3.03;;;17.20;99.90;;;;;;5100294;28;20466;-60
2023/09/01 08:20:04;;;;;;;5.37;3.00;;;17.10;99.90;;;;;;5100157;28;20506;-60
2023/09/01 08:22:31;;;;;;;5.80;3.23;;;17.00;99.90;;;;;;5100629;28;20461;-60
2023/09/01 08:24:59;;;;;;;4.70;3.97;;;17.00;99.90;;;;;;5100866;28;20943;-60
2023/09/01 08:27:28;;;;;;;5.07;3.00;;;16.90;1.00;;;;;;5099854;28;20488;-60
2023/09/01 08:29:56;;;;;;;3.90;2.97;;;16.90;1.00;;;;;;5099800;28;20459;-59
2023/09/01 08:32:25;;;;;;;3.17;2.70;;;16.90;1.00;;;;;;5100111;28;20459;-60
2023/09/01 08:34:52;;;;;;;3.70;3.00;;;17.00;1.00;;;;;;5100165;28;20491;-60
2023/09/01 08:37:20;;;;;;;3.67;3.20;;;17.00;1.00;;;;;;5099635;28;20480;-60
2023/09/01 08:39:48;;;;;;;3.40;2.90;;;17.00;1.00;;;;;;5099979;28;20492;-60
2023/09/01 08:42:17;;;;;;;4.13;3.03;;;17.10;1.00;;;;;;5099851;28;20463;-59
2023/09/01 08:44:45;;;;;;;5.73;3.27;;;17.10;1.00;;;;;;5100290;28;20460;-60
2023/09/01 08:47:14;;;;;;;4.30;3.90;;;17.00;1.00;;;;;;5100019;28;20559;-61
2023/09/01 08:49:43;;;;;;;4.10;3.43;;;16.90;1.00;;;;;;5099875;28;20453;-63
2023/09/01 08:52:12;;;;;;;7.00;3.70;;;16.80;1.00;;;;;;5099439;28;20460;-59
2023/09/01 08:54:40;;;;;;;3.77;3.47;;;16.80;4.20;;;;;;5100161;28;20492;-59
2023/09/01 08:57:07;;;;;;;3.73;3.33;;;16.70;99.50;;;;;;5099892;28;20484;-59
2023/09/01 08:59:36;;;;;;;3.57;3.20;;;16.60;99.90;;;;;;5099113;28;20498;-59
2023/09/01 09:02:05;;;;;;;3.57;3.27;;;16.70;99.90;;;;;;5099739;28;20464;-59
2023/09/01 09:04:33;;;;;;;3.37;3.00;;;16.60;99.90;;;;;;5099797;28;20510;-58
2023/09/01 09:07:15;;;;;;;3.10;2.73;;;16.40;1.00;;;;;;5099576;28;20456;-59
2023/09/01 09:09:53;;;;;;;3.43;2.57;;;16.40;1.00;;;;;;5098925;28;20522;-58
2023/09/01 09:12:23;;;;;;;3.73;3.07;;;16.30;1.00;;;;;;5099331;28;20542;-58
2023/09/01 09:14:52;;;;;;;3.63;3.07;;;16.30;1.00;;;;;;5099713;28;20456;-60
2023/09/01 09:17:22;;;;;;;5.13;3.77;;;16.20;1.00;;;;;;5098956;28;20467;-60
2023/09/01 09:19:53;;;;;;;8.63;3.60;;;16.20;42.50;;;;;;5098939;28;20484;-61
2023/09/01 09:22:22;;;;;;;4.00;3.20;;;16.10;99.90;;;;;;5098904;28;20464;-61
2023/09/01 09:24:51;;;;;;;6.00;3.57;;;16.10;99.90;;;;;;5097759;28;20479;-61
2023/09/01 09:27:20;;;;;;;7.60;3.73;;;16.10;99.90;;;;;;5098677;28;20501;-61
2023/09/01 09:29:49;;;;;;;6.30;3.27;;;16.10;99.90;;;;;;5097650;28;20457;-63
2023/09/01 09:32:21;;;;;;;5.40;3.20;;;16.10;99.90;;;;;;5098574;28;20747;-62
2023/09/01 09:35:07;;;;;;;4.17;2.87;;;16.10;99.90;;;;;;5098950;28;20484;-61
2023/09/01 09:37:37;;;;;;;3.97;3.00;;;16.10;99.90;;;;;;5098445;28;20453;-61
2023/09/01 09:40:12;;;;;;;5.37;3.07;;;16.10;99.90;;;;;;5098857;28;20498;-62
2023/09/01 09:42:42;;;;;;;3.87;2.67;;;16.10;99.90;;;;;;5098989;28;20463;-62
2023/09/01 09:45:23;;;;;;;2.60;2.17;;;16.10;99.90;;;;;;5099113;28;20463;-62
2023/09/01 09:47:51;;;;;;;2.67;2.10;;;16.20;99.90;;;;;;5098739;28;20461;-61
2023/09/01 09:50:20;;;;;;;4.40;2.20;;;16.10;99.90;;;;;;5098765;28;20973;-61
2023/09/01 09:52:50;;;;;;;4.90;2.60;;;16.20;99.90;;;;;;5100937;28;20455;-60
2023/09/01 09:55:25;;;;;;;3.13;2.60;;;16.20;99.90;;;;;;5098809;28;20460;-60
2023/09/01 09:57:55;;;;;;;2.70;2.50;;;16.20;99.90;;;;;;5098286;28;20495;-61
2023/09/01 10:00:23;;;;;;;2.73;2.43;;;16.20;99.90;;;;;;5098746;28;20500;-60
2023/09/01 10:02:57;;;;;;;2.77;2.13;;;16.20;99.90;;;;;;5101790;28;21008;-60
2023/09/01 10:05:25;;;;;;;3.53;2.50;;;16.20;99.90;;;;;;5117199;28;20915;-62
2023/09/01 10:07:55;;;;;;;4.10;2.57;;;16.20;99.90;;;;;;5113760;28;20545;-60
2023/09/01 10:10:23;;;;;;;2.57;2.10;;;16.20;99.90;;;;;;5118887;28;20549;-61
2023/09/01 10:12:52;;;;;;;2.70;2.30;;;16.30;99.90;;;;;;5108808;28;20502;-61
2023/09/01 10:15:20;;;;;;;3.63;2.40;;;16.30;99.90;;;;;;5098121;28;20475;-61
2023/09/01 10:17:49;;;;;;;2.43;2.10;;;16.20;99.90;;;;;;5098195;28;20514;-61
2023/09/01 10:20:17;;;;;;;3.50;1.80;;;16.20;99.90;;;;;;5097799;28;20929;-60
2023/09/01 10:22:45;;;;;;;3.10;2.37;;;16.20;99.90;;;;;;5097667;28;20469;-60
2023/09/01 10:25:19;;;;;;;2.40;2.00;;;16.20;99.90;;;;;;5098196;28;20475;-60
2023/09/01 10:28:05;;;;;;;2.73;1.80;;;16.20;99.90;;;;;;5097737;28;20784;-60
2023/09/01 10:30:34;;;;;;;2.50;2.13;;;16.30;99.90;;;;;;5098477;28;20476;-59
2023/09/01 10:33:09;;;;;;;2.40;1.87;;;16.40;99.90;;;;;;5098316;28;20882;-60
2023/09/01 10:35:39;;;;;;;5.23;1.40;;;16.40;99.90;;;;;;5102796;27;20865;-61
2023/09/01 10:38:17;;;;;;;2.73;1.93;;;16.50;99.90;;;;;;5117864;28;20469;-61
2023/09/01 10:40:48;;;;;;;2.30;1.90;;;16.50;99.90;;;;;;5117393;28;20927;-60
2023/09/01 10:43:48;;;;;;;2.37;1.77;;;16.60;99.90;;;;;;5118272;28;20455;-60
2023/09/01 10:46:26;;;;;;;2.70;1.60;;;16.70;99.90;;;;;;5117895;28;20464;-60
2023/09/01 10:48:55;;;;;;;2.70;1.90;;;16.80;99.90;;;;;;5118180;28;20894;-59
2023/09/01 10:51:23;;;;;;;2.50;1.90;;;16.70;99.90;;;;;;5118429;28;20473;-59
2023/09/01 10:53:52;;;;;;;2.30;1.50;;;16.90;99.90;;;;;;5117866;28;20457;-60
2023/09/01 10:56:21;;;;;;;3.10;2.10;;;17.00;99.90;;;;;;5117898;28;20723;-59
2023/09/01 10:58:50;;;;;;;2.97;1.97;;;17.10;99.90;;;;;;5118015;28;20868;-59
2023/09/01 11:01:31;;;;;;;3.57;1.87;;;17.30;99.90;;;;;;5117852;28;20483;-59
2023/09/01 11:04:30;;;;;;;2.70;2.07;;;17.30;99.90;;;;;;5117557;28;20455;-58
2023/09/01 11:07:06;;;;;;;3.20;2.37;;;17.40;99.90;;;;;;5116990;28;20851;-59
2023/09/01 11:09:56;;;;;;;2.90;2.30;;;17.50;99.90;;;;;;5117791;28;20829;-59
2023/09/01 11:12:34;;;;;;;2.30;1.70;;;17.50;99.90;;;;;;5117823;28;20485;-59
2023/09/01 11:15:04;;;;;;;2.60;1.80;;;17.50;99.90;;;;;;5117550;28;20901;-60
2023/09/01 11:17:40;;;;;;;2.77;1.83;;;17.40;99.90;;;;;;5117452;28;20877;-58
2023/09/01 11:20:09;;;;;;;2.73;1.87;;;17.50;99.90;;;;;;5117596;28;20487;-59
2023/09/01 11:22:39;;;;;;;2.93;1.90;;;17.50;95.50;;;;;;5117568;28;20550;-59
2023/09/01 11:25:10;;;;;;;2.93;1.80;;;17.50;67.30;;;;;;5117922;28;20549;-58
2023/09/01 11:27:43;;;;;;;2.20;1.50;;;17.50;82.20;;;;;;5117195;28;20459;-59
2023/09/01 11:30:11;;;;;;;2.47;1.67;;;17.60;99.90;;;;;;5114088;28;20474;-60
2023/09/01 11:32:38;;;;;;;2.40;1.60;;;17.50;93.40;;;;;;5118253;28;20455;-60
2023/09/01 11:35:06;;;;;;;3.27;2.20;;;17.70;99.90;;;;;;5121771;28;20558;-60
2023/09/01 11:37:39;;;;;;;2.47;1.47;;;17.70;99.90;;;;;;5121331;28;20465;-60
2023/09/01 11:40:09;;;;;;;2.30;1.70;;;17.80;98.70;;;;;;5121398;28;20487;-59
2023/09/01 11:42:40;;;;;;;3.13;1.67;;;17.90;89.80;;;;;;5121575;28;20459;-62
2023/09/01 11:45:09;;;;;;;3.63;2.13;;;18.20;94.70;;;;;;5104140;28;20452;-62
2023/09/01 11:47:36;;;;;;;2.60;2.07;;;18.30;95.80;;;;;;5101058;28;20484;-62
2023/09/01 11:50:05;;;;;;;3.97;2.20;;;18.30;88.80;;;;;;5099233;28;20547;-62
2023/09/01 11:52:32;;;;;;;3.10;2.27;;;18.40;55.40;;;;;;5099252;28;20598;-61
2023/09/01 11:54:59;;;;;;;4.00;2.50;;;18.50;24.40;;;;;;5100523;28;20452;-61
2023/09/01 11:57:27;;;;;;;3.03;2.07;;;18.50;1.00;;;;;;5099603;28;20521;-62
2023/09/01 11:59:55;;;;;;;4.00;2.47;;;18.50;1.00;;;;;;5099805;28;20487;-60
2023/09/01 12:02:23;;;;;;;3.00;2.30;;;18.80;1.00;;;;;;5100548;28;20945;-62
2023/09/01 12:04:51;;;;;;;5.33;2.17;;;18.70;1.00;;;;;;5101115;28;20456;-61
2023/09/01 12:07:26;;;;;;;2.97;2.27;;;18.70;1.00;;;;;;5101146;28;20541;-60
2023/09/01 12:09:54;;;;;;;4.40;2.60;;;18.70;1.00;;;;;;5096001;28;20475;-59
2023/09/01 12:12:21;;;;;;;2.90;2.50;;;18.70;1.00;;;;;;5094514;28;20779;-60
2023/09/01 12:14:49;;;;;;;2.70;2.30;;;18.60;1.00;;;;;;5100821;28;20509;-61
2023/09/01 12:17:19;;;;;;;3.80;2.57;;;18.70;99.90;;;;;;5100993;28;20456;-61
2023/09/01 12:19:48;;;;;;;3.70;2.33;;;18.60;99.90;;;;;;5100365;28;20731;-60
2023/09/01 12:22:15;;;;;;;3.50;2.30;;;18.70;99.90;;;;;;5100250;28;20467;-61
2023/09/01 12:24:53;;;;;;;3.93;2.47;;;18.70;1.00;;;;;;5100837;28;20466;-61
2023/09/01 12:27:20;;;;;;;4.13;3.17;;;18.80;1.00;;;;;;5100284;28;20466;-61
2023/09/01 12:29:48;;;;;;;3.70;3.00;;;18.60;99.90;;;;;;5100229;28;20456;-61
2023/09/01 12:32:16;;;;;;;4.80;2.67;;;18.70;1.00;;;;;;5099894;28;20460;-60
2023/09/01 12:34:45;;;;;;;3.33;2.60;;;18.70;1.00;;;;;;5100330;28;20482;-60
2023/09/01 12:37:12;;;;;;;3.83;2.90;;;18.80;1.00;;;;;;5115790;28;20487;-59
2023/09/01 12:39:40;;;;;;;3.70;2.37;;;18.80;1.00;;;;;;5119557;28;20509;-60
2023/09/01 12:42:07;;;;;;;4.30;2.93;;;18.80;1.00;;;;;;5120214;28;20487;-60
2023/09/01 12:44:35;;;;;;;3.37;3.07;;;18.80;1.00;;;;;;5119214;28;20465;-61
2023/09/01 12:47:03;;;;;;;3.20;2.90;;;18.80;99.90;;;;;;5120519;28;20455;-61
2023/09/01 12:49:30;;;;;;;2.40;2.20;;;18.90;99.90;;;;;;5119898;28;20469;-61
2023/09/01 12:51:59;;;;;;;3.87;2.83;;;18.90;1.00;;;;;;5120249;28;20573;-61
2023/09/01 12:54:26;;;;;;;3.77;2.67;;;19.00;23.00;;;;;;5120304;28;20502;-61